Benedict, Kansas
Current Conditions -  °F | °C
As of 3:52 AM on Friday 21 Nov 2014 (Local Time) from KCNU Reporting Station
Clear Clear  
Wind Chill: 23°   Ceiling: Unl
Heat Index: 31°   Visibility: 10mi
Dew Point: 23°   Wind: 8mph
Humidity: 72%   Direction: 80°E
Pressure: 30.17"   Gusts: NA
Location:  37.63°N, 95.75°W
Report Text: KCNU 210952Z AUTO 08007KT 10SM CLR M01/M05 A3017 RMK AO2 SLP219 T10061050
Loading
Personal Weather Stations






























Interactive Weather Map New forecast layout! Learn more

10-Day Weather Forecast

Advertisements
Track Severe Weather on mobile